Time;durP1;ratioP1;P1;durP2;ratioP2;P2;SDS_P1;SDS_P2;PMS_P1;PMS_P2;Temp;Humidity;BMP_temperature;BMP_pressure;BME280_temperature;BME280_humidity;BME280_pressure;Samples;Min_cycle;Max_cycle;Signal;HPM_P1;HPM_P2
2021/03/28 00:00:01;;;;;;;69.40;30.10;;;;;;;6.63;87.67;100958.00;6119614;29;20417;-78
2021/03/28 00:03:32;;;;;;;64.97;29.90;;;;;;;6.63;87.58;100963.44;6120881;29;20310;-78
2021/03/28 00:06:51;;;;;;;69.67;30.90;;;;;;;6.64;87.48;100960.56;6119287;29;20504;-77
2021/03/28 00:09:58;;;;;;;71.27;29.50;;;;;;;6.78;86.90;100964.25;6120629;29;20227;-76
2021/03/28 00:13:07;;;;;;;73.17;29.80;;;;;;;6.26;87.89;100919.19;6119866;29;20193;-77
2021/03/28 00:16:12;;;;;;;62.80;29.50;;;;;;;6.76;86.90;100969.88;6119162;29;20502;-78
2021/03/28 00:19:31;;;;;;;66.87;29.60;;;;;;;6.61;87.04;100949.22;6121213;29;20227;-78
2021/03/28 00:22:38;;;;;;;65.80;28.53;;;;;;;6.64;87.41;100949.72;6119556;29;20530;-79
2021/03/28 00:25:48;;;;;;;63.90;29.70;;;;;;;6.61;87.07;100939.25;6119433;29;20192;-77
2021/03/28 00:29:09;;;;;;;57.97;26.30;;;;;;;6.54;87.82;100956.44;6151494;29;20272;-77
2021/03/28 00:32:19;;;;;;;63.63;27.87;;;;;;;6.52;87.68;100955.81;6120588;29;20223;-77
2021/03/28 00:35:27;;;;;;;59.20;27.20;;;;;;;6.47;88.31;100955.53;6119430;29;20199;-78
2021/03/28 00:38:48;;;;;;;65.13;26.43;;;;;;;6.55;88.24;100955.44;6118757;29;20231;-77
2021/03/28 00:41:59;;;;;;;59.83;25.93;;;;;;;6.38;88.62;100948.50;6119349;29;20260;-77
2021/03/28 00:45:21;;;;;;;55.33;23.77;;;;;;;6.66;86.94;100936.81;6118266;29;20264;-78
2021/03/28 00:48:48;;;;;;;57.83;24.13;;;;;;;6.46;87.49;100940.28;6119267;29;20222;-78
2021/03/28 00:51:56;;;;;;;56.37;24.50;;;;;;;6.40;88.01;100936.44;6121288;29;20224;-78
2021/03/28 00:55:15;;;;;;;55.13;22.43;;;;;;;6.49;86.98;100935.34;6120198;29;20192;-78
2021/03/28 00:58:47;;;;;;;49.20;21.83;;;;;;;6.50;86.66;100919.88;6135503;29;20308;-78
2021/03/28 01:02:20;;;;;;;52.37;22.37;;;;;;;6.51;86.93;100922.44;6120577;29;20381;-78
2021/03/28 01:05:44;;;;;;;45.53;21.93;;;;;;;6.56;86.48;100919.16;6120311;29;20391;-77
2021/03/28 01:08:58;;;;;;;45.77;20.47;;;;;;;6.30;86.64;100904.22;6119568;29;20223;-79
2021/03/28 01:12:29;;;;;;;40.47;18.17;;;;;;;6.35;87.44;100938.03;6119291;29;20195;-77
2021/03/28 01:16:01;;;;;;;41.47;19.00;;;;;;;6.32;87.23;100922.16;6118670;29;20202;-78
2021/03/28 01:19:19;;;;;;;42.73;19.23;;;;;;;6.31;87.24;100926.75;6120752;29;20203;-79
2021/03/28 01:22:34;;;;;;;38.53;17.37;;;;;;;6.48;86.57;100921.94;6117736;29;20191;-78
2021/03/28 01:26:15;;;;;;;39.83;18.13;;;;;;;6.44;86.22;100912.53;6118743;29;20211;-78
2021/03/28 01:29:28;;;;;;;33.50;16.57;;;;;;;6.07;88.11;100894.50;6119473;29;20547;-78
2021/03/28 01:32:36;;;;;;;33.97;16.00;;;;;;;6.41;87.23;100921.88;6120163;29;20538;-78
2021/03/28 01:35:54;;;;;;;35.97;16.00;;;;;;;6.34;87.06;100926.38;6120166;29;20195;-78
2021/03/28 01:39:12;;;;;;;30.17;14.60;;;;;;;6.15;87.82;100895.25;6118970;29;20202;-78
2021/03/28 01:42:35;;;;;;;28.27;13.80;;;;;;;6.29;87.00;100902.53;6120586;29;20196;-78
2021/03/28 01:45:46;;;;;;;24.33;12.50;;;;;;;6.41;86.95;100921.03;6119912;29;20241;-77
2021/03/28 01:48:55;;;;;;;24.37;13.50;;;;;;;6.39;86.37;100887.88;6117191;29;20219;-77
2021/03/28 01:52:08;;;;;;;28.37;13.73;;;;;;;6.55;86.07;100901.22;6117355;29;20445;-77
2021/03/28 01:55:23;;;;;;;24.67;13.30;;;;;;;6.51;86.09;100908.03;6118326;29;20193;-77
2021/03/28 01:58:42;;;;;;;27.67;12.47;;;;;;;6.30;86.53;100901.50;6119148;29;20231;-77
2021/03/28 02:01:52;;;;;;;22.87;12.47;;;;;;;6.32;86.25;100896.72;6119778;29;20192;-78
2021/03/28 02:05:11;;;;;;;20.07;10.90;;;;;;;6.37;86.88;100919.75;6118675;29;20235;-77
2021/03/28 02:08:22;;;;;;;14.80;8.83;;;;;;;6.20;87.44;100914.50;6120335;29;20192;-78
2021/03/28 02:11:39;;;;;;;19.87;7.80;;;;;;;6.24;86.88;100910.38;6121134;29;20208;-78
2021/03/28 02:15:02;;;;;;;11.70;8.03;;;;;;;6.29;87.00;100924.19;6118435;29;20217;-78
2021/03/28 02:18:27;;;;;;;10.80;7.30;;;;;;;6.30;86.68;100908.78;6116807;29;20449;-78
2021/03/28 02:21:47;;;;;;;10.93;7.40;;;;;;;6.25;87.17;100889.53;6117858;29;20192;-78
2021/03/28 02:24:58;;;;;;;14.33;7.60;;;;;;;6.12;87.74;100897.50;6118587;29;20506;-77
2021/03/28 02:28:12;;;;;;;13.87;7.90;;;;;;;6.26;87.08;100897.50;6120870;29;20502;-78
2021/03/28 02:31:25;;;;;;;11.13;7.10;;;;;;;6.27;87.03;100892.91;6121818;29;20254;-78
2021/03/28 02:34:38;;;;;;;12.10;7.47;;;;;;;6.18;87.17;100897.59;6120710;29;20382;-77
2021/03/28 02:37:54;;;;;;;14.10;7.27;;;;;;;6.34;86.88;100898.44;6122658;29;20192;-78
2021/03/28 02:41:08;;;;;;;12.43;7.57;;;;;;;6.29;86.61;100896.28;6137335;29;20211;-78
2021/03/28 02:44:23;;;;;;;12.77;8.17;;;;;;;6.32;86.51;100895.06;6124763;29;20236;-78
2021/03/28 02:47:52;;;;;;;15.67;7.93;;;;;;;6.43;85.91;100897.28;6124058;29;20216;-79
2021/03/28 02:51:32;;;;;;;16.27;8.40;;;;;;;6.20;86.07;100876.56;6127181;29;20193;-78
2021/03/28 02:54:49;;;;;;;20.73;9.00;;;;;;;6.36;86.39;100902.63;6129645;29;20192;-78
2021/03/28 02:58:11;;;;;;;15.60;8.30;;;;;;;5.95;86.30;100837.25;6125553;29;20230;-78
2021/03/28 03:01:29;;;;;;;19.67;9.10;;;;;;;6.19;86.79;100896.56;6121627;29;20214;-78
2021/03/28 03:04:54;;;;;;;16.63;8.80;;;;;;;6.27;87.05;100910.00;6121180;29;20244;-78
2021/03/28 03:08:19;;;;;;;17.17;9.37;;;;;;;6.09;86.56;100874.31;6121339;29;20192;-78
2021/03/28 03:11:51;;;;;;;16.67;8.77;;;;;;;6.25;86.56;100901.22;6120900;29;20193;-77
2021/03/28 03:15:17;;;;;;;17.67;8.03;;;;;;;6.26;85.85;100894.81;6121050;29;20199;-78
2021/03/28 03:18:53;;;;;;;13.97;7.70;;;;;;;6.29;86.20;100907.94;6119758;29;20498;-77
2021/03/28 03:22:36;;;;;;;16.60;8.20;;;;;;;6.11;86.39;100888.50;6122773;29;20255;-77
2021/03/28 03:26:28;;;;;;;14.87;7.70;;;;;;;6.21;86.03;100904.50;6123356;29;20258;-78
2021/03/28 03:29:50;;;;;;;11.13;7.63;;;;;;;6.02;86.97;100905.91;6119565;29;20483;-78
2021/03/28 03:33:26;;;;;;;15.00;7.67;;;;;;;6.28;85.87;100910.84;6121991;29;20196;-77
2021/03/28 03:36:50;;;;;;;17.60;8.07;;;;;;;6.07;85.76;100881.81;6120791;29;20259;-78
2021/03/28 03:40:13;;;;;;;14.00;7.50;;;;;;;6.26;85.49;100921.91;6123195;29;20283;-78
2021/03/28 03:43:51;;;;;;;13.93;6.67;;;;;;;6.19;85.62;100912.81;6122014;29;20213;-76
2021/03/28 03:47:07;;;;;;;11.37;5.27;;;;;;;6.00;86.73;100915.22;6112840;29;20255;-78
2021/03/28 03:50:17;;;;;;;9.27;4.67;;;;;;;6.01;86.30;100909.63;6118909;29;20279;-77
2021/03/28 03:53:30;;;;;;;6.27;3.80;;;;;;;5.81;86.86;100913.88;6119997;29;20257;-78
2021/03/28 03:56:49;;;;;;;4.53;2.97;;;;;;;5.94;86.11;100908.69;6120137;29;20304;-78
2021/03/28 04:00:03;;;;;;;2.47;2.13;;;;;;;5.90;86.12;100907.38;6121321;29;20449;-77
2021/03/28 04:03:22;;;;;;;1.67;1.67;;;;;;;5.70;86.01;100906.19;6119146;29;20389;-77
2021/03/28 04:06:55;;;;;;;4.00;1.30;;;;;;;5.71;85.86;100907.88;6120619;29;20193;-78
2021/03/28 04:10:20;;;;;;;2.17;1.40;;;;;;;5.68;86.00;100921.78;6122280;29;20308;-78
2021/03/28 04:13:37;;;;;;;3.37;1.57;;;;;;;5.59;86.48;100920.19;6122695;29;20218;-78
2021/03/28 04:16:52;;;;;;;1.90;1.50;;;;;;;5.55;86.88;100914.28;6120927;29;20259;-78
2021/03/28 04:20:06;;;;;;;1.47;1.37;;;;;;;5.38;86.45;100917.31;6118682;29;20203;-78
2021/03/28 04:23:35;;;;;;;3.70;1.60;;;;;;;5.39;87.48;100921.69;6118980;29;20191;-77
2021/03/28 04:26:55;;;;;;;2.17;1.40;;;;;;;5.29;87.04;100913.00;6120279;29;20254;-78
2021/03/28 04:29:58;;;;;;;2.30;1.30;;;;;;;5.31;88.20;100929.88;6118921;29;20246;-77
2021/03/28 04:33:14;;;;;;;1.20;1.10;;;;;;;5.45;86.97;100915.53;6119424;29;20199;-78
2021/03/28 04:36:29;;;;;;;1.00;1.00;;;;;;;5.44;87.14;100905.75;6121293;29;20190;-78
2021/03/28 04:40:01;;;;;;;1.37;1.30;;;;;;;5.29;86.52;100891.34;6119011;29;20488;-77
2021/03/28 04:43:48;;;;;;;3.40;1.50;;;;;;;5.30;86.90;100910.09;6120173;29;20241;-77
2021/03/28 04:47:44;;;;;;;0.90;0.90;;;;;;;5.27;87.14;100910.44;6118276;29;20520;-77
2021/03/28 04:51:29;;;;;;;1.17;1.07;;;;;;;5.04;87.38;100920.41;6139882;29;20219;-77
2021/03/28 04:55:04;;;;;;;1.20;0.90;;;;;;;5.12;87.16;100923.06;6133646;29;20207;-77
2021/03/28 04:58:24;;;;;;;3.03;1.07;;;;;;;5.10;85.42;100908.06;6119928;29;20476;-78
2021/03/28 05:01:46;;;;;;;1.10;1.10;;;;;;;5.07;84.43;100907.41;6119283;29;20201;-78
2021/03/28 05:05:16;;;;;;;0.97;0.97;;;;;;;5.19;84.54;100917.81;6117701;29;20271;-77
2021/03/28 05:08:53;;;;;;;0.93;0.93;;;;;;;5.16;84.56;100923.56;6117478;29;20477;-76
2021/03/28 05:12:32;;;;;;;0.80;0.80;;;;;;;5.16;83.31;100924.41;6120407;29;20190;-78
2021/03/28 05:16:04;;;;;;;0.80;0.80;;;;;;;5.12;83.15;100923.06;6117959;29;20212;-78
2021/03/28 05:19:50;;;;;;;0.70;0.70;;;;;;;5.20;82.25;100914.91;6118425;29;20191;-77
2021/03/28 05:23:52;;;;;;;0.60;0.60;;;;;;;5.10;81.63;100913.47;6119230;29;20215;-76
2021/03/28 05:27:44;;;;;;;1.67;0.70;;;;;;;5.20;81.08;100897.84;6117286;29;20484;-77
2021/03/28 05:31:30;;;;;;;0.67;0.67;;;;;;;5.16;81.47;100908.19;6116146;29;20558;-78
2021/03/28 05:35:06;;;;;;;0.63;0.60;;;;;;;5.22;81.36;100906.59;6131426;29;20208;-77
2021/03/28 05:38:42;;;;;;;0.80;0.77;;;;;;;5.36;80.07;100878.78;6118575;29;20557;-77
2021/03/28 05:42:16;;;;;;;0.63;0.63;;;;;;;5.41;80.47;100895.31;6118448;29;20210;-78
2021/03/28 05:45:40;;;;;;;0.70;0.70;;;;;;;5.41;80.16;100900.72;6117799;29;20379;-77
2021/03/28 05:49:02;;;;;;;0.60;0.60;;;;;;;5.47;79.73;100895.41;6116346;29;20530;-78
2021/03/28 05:52:29;;;;;;;0.77;0.77;;;;;;;4.79;79.36;100813.47;6118032;29;20193;-77
2021/03/28 05:56:09;;;;;;;0.77;0.77;;;;;;;5.47;79.30;100895.41;6118146;29;20204;-77
2021/03/28 05:59:36;;;;;;;0.70;0.70;;;;;;;5.48;78.92;100896.25;6124846;29;20239;-77
2021/03/28 06:03:28;;;;;;;0.70;0.70;;;;;;;5.54;79.03;100892.81;6122721;29;20241;-78
2021/03/28 06:07:10;;;;;;;0.70;0.70;;;;;;;5.62;79.25;100893.56;6052947;29;20217;-77
2021/03/28 06:11:10;;;;;;;3.03;1.00;;;;;;;5.58;78.69;100883.28;6039910;29;20233;-77
2021/03/28 06:14:34;;;;;;;0.83;0.70;;;;;;;5.69;77.39;100893.69;6075853;29;20197;-77
2021/03/28 06:18:16;;;;;;;0.70;0.70;;;;;;;5.50;78.51;100899.59;6075086;29;20242;-77
2021/03/28 06:21:45;;;;;;;9.30;0.90;;;;;;;5.45;78.48;100864.13;6075122;29;20229;-77
2021/03/28 06:25:40;;;;;;;1.30;0.90;;;;;;;5.71;78.05;100869.97;6075549;29;20303;-77
2021/03/28 06:29:27;;;;;;;0.67;0.67;;;;;;;5.86;76.61;100878.13;6049668;29;20212;-78
2021/03/28 06:33:00;;;;;;;0.70;0.70;;;;;;;5.82;75.89;100880.38;6054689;29;20515;-77
2021/03/28 06:36:37;;;;;;;0.60;0.60;;;;;;;5.73;76.37;100886.88;6078809;29;20251;-78
2021/03/28 06:40:02;;;;;;;0.67;0.67;;;;;;;5.82;75.45;100882.22;6077785;29;20201;-78
2021/03/28 06:43:58;;;;;;;1.67;0.80;;;;;;;5.74;75.68;100869.59;6075688;29;20195;-78
2021/03/28 06:47:24;;;;;;;0.60;0.60;;;;;;;5.78;75.07;100875.50;6074586;29;20198;-78
2021/03/28 06:50:50;;;;;;;3.27;0.70;;;;;;;5.83;74.30;100873.91;6075146;29;20225;-78
2021/03/28 06:54:49;;;;;;;0.60;0.60;;;;;;;5.86;74.69;100873.56;6076575;29;20504;-77
2021/03/28 06:58:41;;;;;;;0.60;0.60;;;;;;;5.85;74.58;100877.31;6077015;29;20197;-77
2021/03/28 07:02:22;;;;;;;0.67;0.63;;;;;;;5.71;74.60;100872.69;6074656;29;20244;-77
2021/03/28 07:05:33;;;;;;;0.70;0.70;;;;;;;5.64;75.13;100882.56;6116241;29;20234;-78
2021/03/28 07:08:55;;;;;;;0.60;0.60;;;;;;;5.59;76.70;100876.88;6136358;29;20498;-78
2021/03/28 07:12:02;;;;;;;0.60;0.60;;;;;;;5.52;76.97;100886.75;6119649;29;20520;-77
2021/03/28 07:15:23;;;;;;;0.60;0.60;;;;;;;5.48;76.87;100882.72;6121059;29;20242;-78
2021/03/28 07:19:13;;;;;;;0.60;0.60;;;;;;;5.26;76.68;100859.25;6135148;29;20190;-77
2021/03/28 07:22:30;;;;;;;0.50;0.50;;;;;;;5.33;75.29;100871.00;6120934;29;20196;-78
2021/03/28 07:25:55;;;;;;;0.60;0.60;;;;;;;5.40;75.04;100874.66;6123984;29;20221;-79
2021/03/28 07:29:41;;;;;;;0.60;0.60;;;;;;;5.64;74.40;100871.75;6121038;29;20199;-77
2021/03/28 07:33:14;;;;;;;0.50;0.50;;;;;;;5.75;73.73;100865.88;6122511;29;20190;-77
2021/03/28 07:36:30;;;;;;;2.23;0.60;;;;;;;5.46;74.38;100884.78;6124189;29;20609;-79
2021/03/28 07:40:13;;;;;;;0.50;0.50;;;;;;;5.47;74.49;100878.34;6123024;29;20197;-79
2021/03/28 07:44:03;;;;;;;1.40;0.60;;;;;;;5.65;74.20;100865.28;6121565;29;20481;-80
2021/03/28 07:47:43;;;;;;;0.50;0.50;;;;;;;5.68;72.56;100873.03;6070922;29;20241;-78
2021/03/28 07:51:07;;;;;;;0.50;0.50;;;;;;;5.69;73.19;100872.03;6122143;29;20428;-78
2021/03/28 07:54:49;;;;;;;0.60;0.60;;;;;;;5.66;74.76;100872.41;6121896;29;20412;-79
2021/03/28 07:58:19;;;;;;;0.63;0.60;;;;;;;5.54;75.82;100863.91;6129126;29;20211;-79
2021/03/28 08:01:51;;;;;;;0.70;0.70;;;;;;;5.55;76.77;100876.38;6123853;29;20194;-79
2021/03/28 08:05:19;;;;;;;0.70;0.70;;;;;;;5.61;76.79;100872.09;6123295;29;20282;-78
2021/03/28 08:08:42;;;;;;;0.50;0.50;;;;;;;5.65;77.31;100859.88;6121369;29;20254;-78
2021/03/28 08:12:10;;;;;;;0.70;0.70;;;;;;;5.64;77.75;100869.03;6120961;29;20407;-78
2021/03/28 08:15:44;;;;;;;0.60;0.60;;;;;;;5.83;75.81;100867.66;6120344;29;20222;-78
2021/03/28 08:19:15;;;;;;;582.30;26.70;;;;;;;5.91;75.71;100859.47;6118479;29;20223;-73
2021/03/28 08:22:36;;;;;;;0.63;0.63;;;;;;;5.95;75.56;100861.63;6117783;29;20194;-69
2021/03/28 08:26:00;;;;;;;0.70;0.70;;;;;;;6.08;74.76;100872.66;6117370;29;20382;-70
2021/03/28 08:29:32;;;;;;;0.50;0.50;;;;;;;6.12;73.21;100863.13;6118536;29;20196;-70
2021/03/28 08:33:20;;;;;;;0.60;0.60;;;;;;;6.19;72.63;100874.88;6117928;29;20298;-69
2021/03/28 08:36:51;;;;;;;0.60;0.60;;;;;;;6.07;72.97;100854.72;6121750;29;20212;-69
2021/03/28 08:40:36;;;;;;;0.50;0.50;;;;;;;6.34;73.02;100871.34;6118095;29;20198;-69
2021/03/28 08:44:15;;;;;;;0.50;0.50;;;;;;;6.35;72.59;100867.56;6098008;29;20207;-69
2021/03/28 08:47:44;;;;;;;0.60;0.60;;;;;;;6.10;74.21;100876.00;6132598;29;20214;-68
2021/03/28 08:50:59;;;;;;;1.77;0.60;;;;;;;6.50;87.43;100860.25;6117077;29;20515;-70
2021/03/28 08:54:15;;;;;;;0.60;0.60;;;;;;;6.04;80.16;100855.09;6118083;29;20192;-69
2021/03/28 08:57:36;;;;;;;0.50;0.50;;;;;;;6.25;77.01;100866.00;6117834;29;20208;-69
2021/03/28 09:00:48;;;;;;;0.70;0.60;;;;;;;6.13;76.38;100867.53;6117136;29;20200;-71
2021/03/28 09:04:11;;;;;;;1.53;0.60;;;;;;;6.41;76.15;100869.53;6117207;29;20407;-71
2021/03/28 09:07:26;;;;;;;4.33;0.83;;;;;;;6.25;75.91;100863.31;6117259;29;20260;-71
2021/03/28 09:10:44;;;;;;;0.93;0.80;;;;;;;6.14;74.19;100876.47;6117674;29;20224;-71
2021/03/28 09:13:51;;;;;;;1.93;0.70;;;;;;;5.98;74.33;100868.53;6116611;29;20193;-71
2021/03/28 09:17:03;;;;;;;0.60;0.60;;;;;;;6.05;74.25;100878.44;6117731;29;20189;-72
2021/03/28 09:20:38;;;;;;;1.97;0.90;;;;;;;6.11;74.35;100883.09;6117537;29;20192;-72
2021/03/28 09:23:55;;;;;;;3.80;0.90;;;;;;;6.02;75.26;100880.69;6132161;29;20280;-71
2021/03/28 09:27:31;;;;;;;2.83;1.13;;;;;;;5.86;75.82;100878.97;6117236;29;20277;-72
2021/03/28 09:30:40;;;;;;;1.10;0.93;;;;;;;6.34;76.61;100879.47;6117446;29;20287;-71
2021/03/28 09:34:00;;;;;;;0.80;0.80;;;;;;;6.63;76.61;100887.53;6118117;29;20214;-70
2021/03/28 09:37:16;;;;;;;0.80;0.80;;;;;;;6.18;76.68;100862.38;6121416;29;20215;-70
2021/03/28 09:40:32;;;;;;;0.70;0.70;;;;;;;6.19;78.25;100891.13;6122475;29;20230;-72
2021/03/28 09:43:47;;;;;;;3.73;1.10;;;;;;;6.10;78.81;100896.84;6122371;29;20192;-71
2021/03/28 09:47:00;;;;;;;1.93;0.80;;;;;;;6.22;79.65;100896.19;6121326;29;20538;-71
2021/03/28 09:50:20;;;;;;;0.97;0.90;;;;;;;6.22;78.51;100901.59;6121113;29;20414;-72
2021/03/28 09:53:36;;;;;;;2.00;0.80;;;;;;;6.51;77.13;100883.63;6121145;29;20438;-73
2021/03/28 09:57:00;;;;;;;1.37;0.80;;;;;;;6.58;77.57;100898.09;6122207;29;20252;-73
2021/03/28 10:00:48;;;;;;;1.10;0.87;;;;;;;6.79;77.72;100898.16;6120782;29;20534;-72
2021/03/28 10:04:05;;;;;;;0.90;0.90;;;;;;;6.74;79.44;100895.19;6141677;29;20239;-73
2021/03/28 10:07:10;;;;;;;0.80;0.80;;;;;;;6.75;80.13;100913.13;6142966;29;20199;-72
2021/03/28 10:10:29;;;;;;;0.67;0.60;;;;;;;6.87;79.58;100911.59;6142157;29;20391;-73
2021/03/28 10:13:46;;;;;;;0.77;0.77;;;;;;;6.75;80.33;100903.09;6142122;29;20357;-72
2021/03/28 10:17:09;;;;;;;0.90;0.90;;;;;;;6.62;81.52;100892.13;6142593;29;20191;-73
2021/03/28 10:20:34;;;;;;;0.97;0.90;;;;;;;6.77;81.00;100921.91;6126701;29;20243;-72
2021/03/28 10:23:51;;;;;;;1.00;0.80;;;;;;;6.53;82.40;100919.50;6142555;29;20214;-72
2021/03/28 10:27:16;;;;;;;0.80;0.80;;;;;;;6.46;81.30;100886.06;6142418;29;20207;-71
2021/03/28 10:30:29;;;;;;;1.70;0.90;;;;;;;6.63;80.45;100911.94;6142261;29;20196;-72
2021/03/28 10:33:59;;;;;;;1.00;1.00;;;;;;;6.56;81.09;100940.81;6135741;29;20214;-72
2021/03/28 10:37:16;;;;;;;1.03;1.03;;;;;;;6.45;81.55;100928.59;6120220;29;20271;-72
2021/03/28 10:40:34;;;;;;;1.00;1.00;;;;;;;6.72;80.14;100949.63;6120054;29;20196;-72
2021/03/28 10:44:04;;;;;;;0.90;0.90;;;;;;;6.82;79.76;100946.59;6120929;29;20227;-72
2021/03/28 10:47:47;;;;;;;1.20;1.20;;;;;;;6.80;80.81;100954.09;6112214;29;20279;-72
2021/03/28 10:51:23;;;;;;;1.10;1.10;;;;;;;6.82;80.48;100952.00;6120064;29;20299;-72
2021/03/28 10:55:00;;;;;;;0.90;0.90;;;;;;;6.64;81.77;100967.84;6133038;29;20272;-73
2021/03/28 10:58:50;;;;;;;1.30;1.00;;;;;;;6.49;81.79;100972.44;6120779;29;20191;-72
2021/03/28 11:02:12;;;;;;;2.90;1.20;;;;;;;6.44;81.58;100962.16;6151110;29;20218;-72
2021/03/28 11:05:45;;;;;;;1.00;1.00;;;;;;;6.50;81.83;100979.53;6119304;29;20484;-73
2021/03/28 11:09:21;;;;;;;3.13;1.07;;;;;;;6.54;81.09;100983.56;6119656;29;20232;-72
2021/03/28 11:12:45;;;;;;;1.67;0.90;;;;;;;6.37;82.07;100982.88;6119981;29;20228;-73
2021/03/28 11:16:05;;;;;;;1.90;1.30;;;;;;;6.41;82.08;100983.38;6119273;29;20551;-71
2021/03/28 11:19:50;;;;;;;2.30;1.37;;;;;;;6.53;82.11;100976.44;6118921;29;20459;-72
2021/03/28 11:23:16;;;;;;;1.10;1.10;;;;;;;6.54;82.03;100991.69;6119117;29;20200;-73
2021/03/28 11:26:52;;;;;;;1.27;1.17;;;;;;;6.54;82.76;100987.13;6120216;29;20189;-73
2021/03/28 11:30:09;;;;;;;2.73;1.10;;;;;;;6.78;82.32;100983.25;6118942;29;20211;-73
2021/03/28 11:33:29;;;;;;;0.90;0.90;;;;;;;6.87;81.83;100988.38;6118782;29;20300;-72
2021/03/28 11:36:34;;;;;;;1.00;1.00;;;;;;;6.59;83.04;100989.25;6120152;29;20237;-73
2021/03/28 11:40:05;;;;;;;0.90;0.90;;;;;;;6.32;85.41;100992.63;6119945;29;20192;-72
2021/03/28 11:43:37;;;;;;;2.87;0.93;;;;;;;6.34;85.39;100996.84;6119564;29;20259;-72
2021/03/28 11:46:51;;;;;;;1.13;0.90;;;;;;;6.30;84.25;101004.47;6119482;29;20196;-72
2021/03/28 11:50:05;;;;;;;1.03;1.03;;;;;;;6.38;84.69;101008.13;6118509;29;20204;-72
2021/03/28 11:53:28;;;;;;;1.00;1.00;;;;;;;6.36;84.85;101004.75;6118287;29;20558;-72
2021/03/28 11:56:41;;;;;;;1.07;1.07;;;;;;;5.90;86.17;101010.28;6119602;29;20204;-73
2021/03/28 11:59:46;;;;;;;1.80;1.00;;;;;;;6.00;85.58;101019.00;6119232;29;20199;-72
2021/03/28 12:03:37;;;;;;;0.90;0.90;;;;;;;6.11;84.67;101018.53;6118421;29;20207;-72
2021/03/28 12:06:53;;;;;;;1.03;1.03;;;;;;;6.15;85.07;101030.72;6118845;29;20275;-72
2021/03/28 12:10:16;;;;;;;0.87;0.87;;;;;;;5.88;84.86;101023.16;6117907;29;20198;-73
2021/03/28 12:13:50;;;;;;;0.90;0.90;;;;;;;6.11;83.57;101039.41;6118244;29;20537;-72
2021/03/28 12:17:16;;;;;;;0.93;0.93;;;;;;;5.97;83.73;101043.72;6139652;29;20191;-73
2021/03/28 12:20:25;;;;;;;0.90;0.90;;;;;;;6.14;82.77;101061.53;6118952;29;20208;-73
2021/03/28 12:23:33;;;;;;;0.90;0.90;;;;;;;5.93;83.98;101069.47;6118700;29;20243;-72
2021/03/28 12:27:03;;;;;;;1.00;1.00;;;;;;;6.10;83.77;101075.63;6118859;29;20239;-73
2021/03/28 12:30:31;;;;;;;0.80;0.80;;;;;;;5.93;83.64;101074.91;6131979;29;20578;-72
2021/03/28 12:33:55;;;;;;;0.87;0.87;;;;;;;5.69;83.60;101073.19;6118063;29;20220;-71
2021/03/28 12:37:06;;;;;;;0.90;0.90;;;;;;;5.90;83.97;101083.41;6117139;29;20191;-71
2021/03/28 12:40:26;;;;;;;0.90;0.90;;;;;;;5.93;82.71;101096.56;6118520;29;20192;-70
2021/03/28 12:43:33;;;;;;;0.90;0.90;;;;;;;5.92;83.56;101088.63;6118006;29;20227;-72
2021/03/28 12:46:52;;;;;;;0.90;0.90;;;;;;;5.68;84.37;101097.72;6117138;29;20280;-72
2021/03/28 12:49:59;;;;;;;0.90;0.90;;;;;;;5.76;84.28;101105.81;6118255;29;20192;-72
2021/03/28 12:53:13;;;;;;;0.83;0.83;;;;;;;5.73;84.07;101116.97;6117854;29;20246;-71
2021/03/28 12:56:26;;;;;;;0.93;0.93;;;;;;;5.82;83.76;101110.50;6117973;29;20263;-71
2021/03/28 12:59:35;;;;;;;0.87;0.80;;;;;;;5.77;82.63;101095.81;6117797;29;20193;-72
2021/03/28 13:02:40;;;;;;;2.33;1.00;;;;;;;5.71;82.95;101113.63;6117785;29;20243;-71
2021/03/28 13:06:10;;;;;;;0.90;0.90;;;;;;;5.81;83.47;101127.75;6117585;29;20249;-72
2021/03/28 13:09:28;;;;;;;1.10;1.00;;;;;;;5.80;82.96;101134.22;6125681;29;20192;-73
2021/03/28 13:12:33;;;;;;;0.87;0.87;;;;;;;5.81;83.15;101138.59;6124367;29;20215;-73
2021/03/28 13:15:44;;;;;;;1.00;1.00;;;;;;;5.58;84.09;101149.38;6120519;29;20307;-72
2021/03/28 13:18:48;;;;;;;0.90;0.90;;;;;;;5.72;84.37;101147.81;6117861;29;20193;-73
2021/03/28 13:21:58;;;;;;;1.10;1.10;;;;;;;5.48;84.96;101145.22;6116675;29;20532;-72
2021/03/28 13:25:21;;;;;;;1.23;1.23;;;;;;;5.61;84.20;101161.72;6117996;29;20192;-73
2021/03/28 13:28:29;;;;;;;1.33;1.20;;;;;;;5.60;84.20;101166.28;6116826;29;20509;-73
2021/03/28 13:31:43;;;;;;;1.00;1.00;;;;;;;5.51;84.40;101166.50;6116764;29;20522;-73
2021/03/28 13:34:57;;;;;;;1.03;1.03;;;;;;;5.56;83.53;101170.38;6117959;29;20231;-73
2021/03/28 13:38:13;;;;;;;1.10;1.10;;;;;;;5.38;84.66;101166.22;6117372;29;20276;-72
2021/03/28 13:41:25;;;;;;;2.30;1.60;;;;;;;5.55;84.60;101184.91;6116786;29;20477;-72
2021/03/28 13:44:48;;;;;;;1.20;1.20;;;;;;;5.59;84.44;101185.44;6117811;29;20227;-71
2021/03/28 13:47:54;;;;;;;3.23;1.53;;;;;;;5.64;85.00;101199.28;6116369;29;20192;-72
2021/03/28 13:51:15;;;;;;;1.30;1.30;;;;;;;5.59;85.23;101196.25;6116751;29;20191;-72
2021/03/28 13:54:19;;;;;;;1.60;1.50;;;;;;;5.55;85.92;101197.59;6117530;29;20199;-72
2021/03/28 13:57:25;;;;;;;1.37;1.27;;;;;;;5.54;84.58;101209.47;6116492;29;20198;-73
2021/03/28 14:00:34;;;;;;;2.87;1.53;;;;;;;5.59;84.38;101196.25;6117388;29;20215;-72
2021/03/28 14:03:39;;;;;;;1.73;1.40;;;;;;;5.52;85.46;101211.50;6116878;29;20272;-72
2021/03/28 14:06:44;;;;;;;2.07;1.67;;;;;;;5.65;85.81;101217.19;6117136;29;20191;-73
2021/03/28 14:09:53;;;;;;;2.73;1.40;;;;;;;5.48;85.22;101218.28;6116438;29;20221;-72
2021/03/28 14:13:05;;;;;;;1.43;1.33;;;;;;;5.58;85.25;101221.63;6116969;29;20220;-72
2021/03/28 14:16:14;;;;;;;1.77;1.47;;;;;;;5.60;84.90;101220.44;6117287;29;20200;-72
2021/03/28 14:19:23;;;;;;;1.97;1.40;;;;;;;5.54;85.61;101233.81;6117291;29;20190;-72
2021/03/28 14:22:41;;;;;;;2.03;1.47;;;;;;;5.63;85.84;101232.75;6121436;29;20204;-73
2021/03/28 14:25:47;;;;;;;1.53;1.40;;;;;;;5.68;85.57;101238.50;6121356;29;20198;-72
2021/03/28 14:28:50;;;;;;;1.50;1.40;;;;;;;5.67;85.62;101247.66;6120178;29;20197;-72
2021/03/28 14:32:00;;;;;;;3.70;1.67;;;;;;;5.66;84.84;101240.53;6120878;29;20247;-72
2021/03/28 14:35:30;;;;;;;1.40;1.30;;;;;;;5.77;84.93;101226.63;6121274;29;20192;-72
2021/03/28 14:39:12;;;;;;;1.97;1.50;;;;;;;5.90;83.78;101237.75;6121232;29;20191;-72
2021/03/28 14:42:17;;;;;;;3.70;1.57;;;;;;;5.83;83.29;101228.59;6120913;29;20259;-72
2021/03/28 14:45:30;;;;;;;1.87;1.53;;;;;;;5.60;84.61;101239.38;6120980;29;20196;-72
2021/03/28 14:48:43;;;;;;;2.40;1.73;;;;;;;5.86;83.84;101241.84;6119979;29;20459;-72
2021/03/28 14:51:59;;;;;;;2.23;1.77;;;;;;;6.01;83.68;101260.91;6120815;29;20278;-71
2021/03/28 14:55:17;;;;;;;3.17;1.97;;;;;;;6.03;84.31;101248.88;6120960;29;20191;-72
2021/03/28 14:58:36;;;;;;;3.80;1.97;;;;;;;6.17;84.71;101260.78;6121057;29;20230;-72
2021/03/28 15:01:48;;;;;;;2.90;2.00;;;;;;;5.87;85.63;101232.69;6119438;29;20219;-72
2021/03/28 15:05:15;;;;;;;2.40;1.80;;;;;;;5.85;85.67;101269.09;6119937;29;20546;-72
2021/03/28 15:08:31;;;;;;;3.33;2.10;;;;;;;5.81;86.88;101238.78;6124069;29;20258;-73
2021/03/28 15:11:39;;;;;;;5.33;1.93;;;;;;;5.97;86.64;101271.25;6122545;29;20231;-73
2021/03/28 15:14:53;;;;;;;5.40;2.00;;;;;;;5.81;85.94;101244.19;6119372;29;20216;-72
2021/03/28 15:18:06;;;;;;;11.73;2.57;;;;;;;5.87;87.30;101269.75;6119386;29;20196;-73
2021/03/28 15:21:17;;;;;;;4.63;2.40;;;;;;;5.53;86.26;101172.59;6119318;29;20479;-71
2021/03/28 15:24:24;;;;;;;2.80;2.03;;;;;;;6.10;87.41;101266.09;6120130;29;20247;-72
2021/03/28 15:27:35;;;;;;;6.20;2.10;;;;;;;5.96;86.80;101247.88;6119980;29;20223;-72
2021/03/28 15:30:42;;;;;;;2.30;1.77;;;;;;;6.23;86.89;101282.63;6118918;29;20497;-72
2021/03/28 15:33:56;;;;;;;2.03;1.90;;;;;;;6.32;86.77;101285.28;6118746;29;20519;-72
2021/03/28 15:37:14;;;;;;;7.10;1.90;;;;;;;6.15;88.49;101279.94;6118935;29;20543;-72
2021/03/28 15:40:44;;;;;;;4.10;2.10;;;;;;;6.09;88.73;101275.22;6120175;29;20192;-72
2021/03/28 15:43:59;;;;;;;8.17;2.50;;;;;;;6.41;87.69;101284.19;6119868;29;20239;-72
2021/03/28 15:47:15;;;;;;;3.43;2.10;;;;;;;6.38;88.12;101284.56;6118512;29;20192;-73